sensor_id;sensor_type;location;lat;lon;timestamp;temperature;humidity
79024;DHT22;70306;44.764;37.688;2023-09-19T00:00:01;19.28;50.53
79024;DHT22;70306;44.764;37.688;2023-09-19T00:01:06;19.27;50.39
79024;DHT22;70306;44.764;37.688;2023-09-19T00:02:13;19.24;50.64
79024;DHT22;70306;44.764;37.688;2023-09-19T00:03:15;19.24;49.93
79024;DHT22;70306;44.764;37.688;2023-09-19T00:04:17;19.30;50.75
79024;DHT22;70306;44.764;37.688;2023-09-19T00:05:25;19.28;52.38
79024;DHT22;70306;44.764;37.688;2023-09-19T00:06:29;19.33;51.46
79024;DHT22;70306;44.764;37.688;2023-09-19T00:07:33;19.31;51.61
79024;DHT22;70306;44.764;37.688;2023-09-19T00:08:34;19.30;51.61
79024;DHT22;70306;44.764;37.688;2023-09-19T00:09:36;19.28;50.35
79024;DHT22;70306;44.764;37.688;2023-09-19T00:10:39;19.30;50.26
79024;DHT22;70306;44.764;37.688;2023-09-19T00:11:42;19.31;50.34
79024;DHT22;70306;44.764;37.688;2023-09-19T00:12:46;19.31;51.59
79024;DHT22;70306;44.764;37.688;2023-09-19T00:13:48;19.28;50.92
79024;DHT22;70306;44.764;37.688;2023-09-19T00:14:51;19.30;53.28
79024;DHT22;70306;44.764;37.688;2023-09-19T00:15:54;19.33;50.63
79024;DHT22;70306;44.764;37.688;2023-09-19T00:16:59;19.31;52.46
79024;DHT22;70306;44.764;37.688;2023-09-19T00:18:02;19.33;53.08
79024;DHT22;70306;44.764;37.688;2023-09-19T00:19:07;19.37;53.42
79024;DHT22;70306;44.764;37.688;2023-09-19T00:20:10;19.34;52.31
79024;DHT22;70306;44.764;37.688;2023-09-19T00:21:14;19.24;49.65
79024;DHT22;70306;44.764;37.688;2023-09-19T00:22:17;19.23;49.68
79024;DHT22;70306;44.764;37.688;2023-09-19T00:23:20;19.26;51.39
79024;DHT22;70306;44.764;37.688;2023-09-19T00:24:22;19.27;52.37
79024;DHT22;70306;44.764;37.688;2023-09-19T00:25:25;19.22;51.09
79024;DHT22;70306;44.764;37.688;2023-09-19T00:26:28;19.22;52.77
79024;DHT22;70306;44.764;37.688;2023-09-19T00:27:32;19.13;51.80
79024;DHT22;70306;44.764;37.688;2023-09-19T00:28:35;19.12;51.17
79024;DHT22;70306;44.764;37.688;2023-09-19T00:29:37;19.15;52.31
79024;DHT22;70306;44.764;37.688;2023-09-19T00:30:42;19.13;52.90
79024;DHT22;70306;44.764;37.688;2023-09-19T00:31:45;19.16;51.99
79024;DHT22;70306;44.764;37.688;2023-09-19T00:32:47;19.08;51.96
79024;DHT22;70306;44.764;37.688;2023-09-19T00:33:50;19.08;53.64
79024;DHT22;70306;44.764;37.688;2023-09-19T00:34:53;19.08;51.22
79024;DHT22;70306;44.764;37.688;2023-09-19T00:35:56;19.02;52.12
79024;DHT22;70306;44.764;37.688;2023-09-19T00:36:59;19.00;52.46
79024;DHT22;70306;44.764;37.688;2023-09-19T00:38:01;18.99;52.76
79024;DHT22;70306;44.764;37.688;2023-09-19T00:39:03;18.98;50.69
79024;DHT22;70306;44.764;37.688;2023-09-19T00:40:08;18.87;51.07
79024;DHT22;70306;44.764;37.688;2023-09-19T00:41:19;18.87;52.00
79024;DHT22;70306;44.764;37.688;2023-09-19T00:42:22;18.87;52.41
79024;DHT22;70306;44.764;37.688;2023-09-19T00:43:24;18.84;52.30
79024;DHT22;70306;44.764;37.688;2023-09-19T00:44:28;18.87;51.01
79024;DHT22;70306;44.764;37.688;2023-09-19T00:45:30;18.84;50.55
79024;DHT22;70306;44.764;37.688;2023-09-19T00:46:32;18.88;51.53
79024;DHT22;70306;44.764;37.688;2023-09-19T00:47:35;18.85;50.17
79024;DHT22;70306;44.764;37.688;2023-09-19T00:48:41;18.91;50.35
79024;DHT22;70306;44.764;37.688;2023-09-19T00:49:45;18.95;49.81
79024;DHT22;70306;44.764;37.688;2023-09-19T00:50:54;18.96;49.90
79024;DHT22;70306;44.764;37.688;2023-09-19T00:51:58;18.99;49.89
79024;DHT22;70306;44.764;37.688;2023-09-19T00:53:01;19.00;50.21
79024;DHT22;70306;44.764;37.688;2023-09-19T00:54:09;19.00;50.10
79024;DHT22;70306;44.764;37.688;2023-09-19T00:55:11;19.02;50.13
79024;DHT22;70306;44.764;37.688;2023-09-19T00:56:15;19.00;49.52
79024;DHT22;70306;44.764;37.688;2023-09-19T00:57:22;19.03;49.24
79024;DHT22;70306;44.764;37.688;2023-09-19T00:58:25;19.06;49.12
79024;DHT22;70306;44.764;37.688;2023-09-19T00:59:34;19.10;49.54
79024;DHT22;70306;44.764;37.688;2023-09-19T01:00:37;19.10;49.72
79024;DHT22;70306;44.764;37.688;2023-09-19T01:01:40;19.08;49.73
79024;DHT22;70306;44.764;37.688;2023-09-19T01:02:42;19.06;49.51
79024;DHT22;70306;44.764;37.688;2023-09-19T01:03:45;19.08;49.68
79024;DHT22;70306;44.764;37.688;2023-09-19T01:04:48;19.10;49.37
79024;DHT22;70306;44.764;37.688;2023-09-19T01:05:50;19.06;49.41
79024;DHT22;70306;44.764;37.688;2023-09-19T01:06:54;19.10;49.58
79024;DHT22;70306;44.764;37.688;2023-09-19T01:07:56;19.13;49.68
79024;DHT22;70306;44.764;37.688;2023-09-19T01:08:58;19.12;49.54
79024;DHT22;70306;44.764;37.688;2023-09-19T01:10:04;19.16;49.49
79024;DHT22;70306;44.764;37.688;2023-09-19T01:11:30;19.16;49.45
79024;DHT22;70306;44.764;37.688;2023-09-19T01:14:41;19.10;50.11
79024;DHT22;70306;44.764;37.688;2023-09-19T01:17:18;19.16;49.47
79024;DHT22;70306;44.764;37.688;2023-09-19T01:20:39;19.09;50.31
79024;DHT22;70306;44.764;37.688;2023-09-19T01:23:29;19.05;50.27
79024;DHT22;70306;44.764;37.688;2023-09-19T01:24:50;19.05;50.01
79024;DHT22;70306;44.764;37.688;2023-09-19T01:27:47;19.03;51.51
79024;DHT22;70306;44.764;37.688;2023-09-19T01:30:35;18.96;50.50
79024;DHT22;70306;44.764;37.688;2023-09-19T01:31:40;18.94;51.40
79024;DHT22;70306;44.764;37.688;2023-09-19T01:32:44;18.98;50.65
79024;DHT22;70306;44.764;37.688;2023-09-19T01:33:59;19.00;51.62
79024;DHT22;70306;44.764;37.688;2023-09-19T01:35:02;19.00;49.99
79024;DHT22;70306;44.764;37.688;2023-09-19T01:36:05;19.00;50.24
79024;DHT22;70306;44.764;37.688;2023-09-19T01:37:08;19.00;49.76
79024;DHT22;70306;44.764;37.688;2023-09-19T01:38:10;19.02;49.81
79024;DHT22;70306;44.764;37.688;2023-09-19T01:39:14;19.02;50.38
79024;DHT22;70306;44.764;37.688;2023-09-19T01:40:18;19.03;49.61
79024;DHT22;70306;44.764;37.688;2023-09-19T01:41:29;19.06;51.01
79024;DHT22;70306;44.764;37.688;2023-09-19T01:43:59;19.00;50.70
79024;DHT22;70306;44.764;37.688;2023-09-19T01:46:30;18.95;52.20
79024;DHT22;70306;44.764;37.688;2023-09-19T01:47:44;18.87;51.37
79024;DHT22;70306;44.764;37.688;2023-09-19T01:51:03;18.82;50.61
79024;DHT22;70306;44.764;37.688;2023-09-19T01:52:13;18.84;50.79
79024;DHT22;70306;44.764;37.688;2023-09-19T01:55:02;18.92;50.02
79024;DHT22;70306;44.764;37.688;2023-09-19T01:56:14;18.91;51.08
79024;DHT22;70306;44.764;37.688;2023-09-19T01:58:42;18.91;51.14
79024;DHT22;70306;44.764;37.688;2023-09-19T01:59:52;18.91;50.14
79024;DHT22;70306;44.764;37.688;2023-09-19T02:00:56;18.94;50.76
79024;DHT22;70306;44.764;37.688;2023-09-19T02:02:00;18.95;50.11
79024;DHT22;70306;44.764;37.688;2023-09-19T02:03:03;18.94;49.29
79024;DHT22;70306;44.764;37.688;2023-09-19T02:04:05;18.98;49.89
79024;DHT22;70306;44.764;37.688;2023-09-19T02:05:07;19.00;51.28
79024;DHT22;70306;44.764;37.688;2023-09-19T02:06:16;18.99;50.14
79024;DHT22;70306;44.764;37.688;2023-09-19T02:07:19;18.92;49.77
79024;DHT22;70306;44.764;37.688;2023-09-19T02:08:22;18.94;51.49
79024;DHT22;70306;44.764;37.688;2023-09-19T02:09:25;18.94;51.89
79024;DHT22;70306;44.764;37.688;2023-09-19T02:10:27;18.91;51.19
79024;DHT22;70306;44.764;37.688;2023-09-19T02:11:28;18.87;51.57
79024;DHT22;70306;44.764;37.688;2023-09-19T02:12:30;18.84;50.86
79024;DHT22;70306;44.764;37.688;2023-09-19T02:13:37;18.79;50.19
79024;DHT22;70306;44.764;37.688;2023-09-19T02:14:39;18.76;49.76
79024;DHT22;70306;44.764;37.688;2023-09-19T02:15:40;18.87;50.56
79024;DHT22;70306;44.764;37.688;2023-09-19T02:16:42;18.85;50.95
79024;DHT22;70306;44.764;37.688;2023-09-19T02:17:44;18.84;51.21
79024;DHT22;70306;44.764;37.688;2023-09-19T02:18:50;18.82;51.73
79024;DHT22;70306;44.764;37.688;2023-09-19T02:19:55;18.78;51.13
79024;DHT22;70306;44.764;37.688;2023-09-19T02:20:57;18.67;50.40
79024;DHT22;70306;44.764;37.688;2023-09-19T02:22:00;18.69;50.63
79024;DHT22;70306;44.764;37.688;2023-09-19T02:23:04;18.71;50.98
79024;DHT22;70306;44.764;37.688;2023-09-19T02:24:07;18.74;52.30
79024;DHT22;70306;44.764;37.688;2023-09-19T02:25:09;18.72;51.22
79024;DHT22;70306;44.764;37.688;2023-09-19T02:26:11;18.72;51.09
79024;DHT22;70306;44.764;37.688;2023-09-19T02:27:13;18.76;50.89
79024;DHT22;70306;44.764;37.688;2023-09-19T02:28:17;18.76;50.50
79024;DHT22;70306;44.764;37.688;2023-09-19T02:29:18;18.75;53.19
79024;DHT22;70306;44.764;37.688;2023-09-19T02:30:20;18.75;51.79
79024;DHT22;70306;44.764;37.688;2023-09-19T02:31:24;18.71;51.07
79024;DHT22;70306;44.764;37.688;2023-09-19T02:32:25;18.60;51.62
79024;DHT22;70306;44.764;37.688;2023-09-19T02:33:28;18.63;51.45
79024;DHT22;70306;44.764;37.688;2023-09-19T02:34:33;18.67;53.46
79024;DHT22;70306;44.764;37.688;2023-09-19T02:35:37;18.69;53.95
79024;DHT22;70306;44.764;37.688;2023-09-19T02:36:39;18.68;54.18
79024;DHT22;70306;44.764;37.688;2023-09-19T02:37:40;18.69;55.85
79024;DHT22;70306;44.764;37.688;2023-09-19T02:38:42;18.67;56.02
79024;DHT22;70306;44.764;37.688;2023-09-19T02:39:44;18.65;54.42
79024;DHT22;70306;44.764;37.688;2023-09-19T02:40:47;18.63;53.09
79024;DHT22;70306;44.764;37.688;2023-09-19T02:41:49;18.53;53.78
79024;DHT22;70306;44.764;37.688;2023-09-19T02:42:55;18.44;54.20
79024;DHT22;70306;44.764;37.688;2023-09-19T02:43:58;18.43;55.60
79024;DHT22;70306;44.764;37.688;2023-09-19T02:45:02;18.44;56.65
79024;DHT22;70306;44.764;37.688;2023-09-19T02:46:07;18.50;55.92
79024;DHT22;70306;44.764;37.688;2023-09-19T02:47:08;18.50;55.22
79024;DHT22;70306;44.764;37.688;2023-09-19T02:48:10;18.47;55.76
79024;DHT22;70306;44.764;37.688;2023-09-19T02:49:13;18.43;54.27
79024;DHT22;70306;44.764;37.688;2023-09-19T02:50:15;18.40;53.72
79024;DHT22;70306;44.764;37.688;2023-09-19T02:51:18;18.37;54.72
79024;DHT22;70306;44.764;37.688;2023-09-19T02:52:19;18.34;53.03
79024;DHT22;70306;44.764;37.688;2023-09-19T02:53:21;18.30;54.22
79024;DHT22;70306;44.764;37.688;2023-09-19T02:54:23;18.30;53.63
79024;DHT22;70306;44.764;37.688;2023-09-19T02:55:25;18.30;54.60
79024;DHT22;70306;44.764;37.688;2023-09-19T02:56:27;18.33;56.94
79024;DHT22;70306;44.764;37.688;2023-09-19T02:57:29;18.33;57.14
79024;DHT22;70306;44.764;37.688;2023-09-19T02:58:31;18.32;54.55
79024;DHT22;70306;44.764;37.688;2023-09-19T02:59:36;18.34;58.49
79024;DHT22;70306;44.764;37.688;2023-09-19T03:00:38;18.32;55.57
79024;DHT22;70306;44.764;37.688;2023-09-19T03:01:43;18.30;56.67
79024;DHT22;70306;44.764;37.688;2023-09-19T03:02:45;18.22;56.10
79024;DHT22;70306;44.764;37.688;2023-09-19T03:03:48;18.19;58.27
79024;DHT22;70306;44.764;37.688;2023-09-19T03:04:49;18.22;54.01
79024;DHT22;70306;44.764;37.688;2023-09-19T03:05:52;18.19;53.44
79024;DHT22;70306;44.764;37.688;2023-09-19T03:06:54;18.23;54.89
79024;DHT22;70306;44.764;37.688;2023-09-19T03:08:00;18.25;54.39
79024;DHT22;70306;44.764;37.688;2023-09-19T03:09:02;18.25;54.64
79024;DHT22;70306;44.764;37.688;2023-09-19T03:10:07;18.28;53.46
79024;DHT22;70306;44.764;37.688;2023-09-19T03:11:09;18.25;55.17
79024;DHT22;70306;44.764;37.688;2023-09-19T03:12:14;18.23;52.54
79024;DHT22;70306;44.764;37.688;2023-09-19T03:13:17;18.16;51.67
79024;DHT22;70306;44.764;37.688;2023-09-19T03:14:19;18.13;53.93
79024;DHT22;70306;44.764;37.688;2023-09-19T03:15:22;18.13;56.64
79024;DHT22;70306;44.764;37.688;2023-09-19T03:16:26;18.13;53.30
79024;DHT22;70306;44.764;37.688;2023-09-19T03:17:31;18.23;52.60
79024;DHT22;70306;44.764;37.688;2023-09-19T03:18:34;18.29;53.73
79024;DHT22;70306;44.764;37.688;2023-09-19T03:19:36;18.30;53.57
79024;DHT22;70306;44.764;37.688;2023-09-19T03:20:41;18.32;55.04
79024;DHT22;70306;44.764;37.688;2023-09-19T03:21:43;18.30;52.75
79024;DHT22;70306;44.764;37.688;2023-09-19T03:22:45;18.32;54.65
79024;DHT22;70306;44.764;37.688;2023-09-19T03:23:47;18.28;52.18
79024;DHT22;70306;44.764;37.688;2023-09-19T03:24:49;18.32;53.83
79024;DHT22;70306;44.764;37.688;2023-09-19T03:25:51;18.36;53.47
79024;DHT22;70306;44.764;37.688;2023-09-19T03:26:53;18.37;52.52
79024;DHT22;70306;44.764;37.688;2023-09-19T03:27:56;18.44;53.40
79024;DHT22;70306;44.764;37.688;2023-09-19T03:29:03;18.48;53.70
79024;DHT22;70306;44.764;37.688;2023-09-19T03:30:08;18.53;52.54
79024;DHT22;70306;44.764;37.688;2023-09-19T03:31:10;18.56;50.22
79024;DHT22;70306;44.764;37.688;2023-09-19T03:32:12;18.61;51.88
79024;DHT22;70306;44.764;37.688;2023-09-19T03:33:14;18.68;52.20
79024;DHT22;70306;44.764;37.688;2023-09-19T03:34:16;18.65;52.71
79024;DHT22;70306;44.764;37.688;2023-09-19T03:35:18;18.60;51.21
79024;DHT22;70306;44.764;37.688;2023-09-19T03:36:21;18.56;50.51
79024;DHT22;70306;44.764;37.688;2023-09-19T03:37:23;18.63;51.29
79024;DHT22;70306;44.764;37.688;2023-09-19T03:38:25;18.64;50.62
79024;DHT22;70306;44.764;37.688;2023-09-19T03:39:27;18.68;51.35
79024;DHT22;70306;44.764;37.688;2023-09-19T03:40:30;18.71;52.09
79024;DHT22;70306;44.764;37.688;2023-09-19T03:41:32;18.71;51.43
79024;DHT22;70306;44.764;37.688;2023-09-19T03:42:34;18.76;50.23
79024;DHT22;70306;44.764;37.688;2023-09-19T03:43:37;18.78;50.32
79024;DHT22;70306;44.764;37.688;2023-09-19T03:44:39;18.85;48.94
79024;DHT22;70306;44.764;37.688;2023-09-19T03:45:41;18.96;49.07
79024;DHT22;70306;44.764;37.688;2023-09-19T03:46:43;18.98;49.93
79024;DHT22;70306;44.764;37.688;2023-09-19T03:47:45;19.03;48.59
79024;DHT22;70306;44.764;37.688;2023-09-19T03:48:51;19.08;48.84
79024;DHT22;70306;44.764;37.688;2023-09-19T03:49:53;19.13;49.23
79024;DHT22;70306;44.764;37.688;2023-09-19T03:50:55;19.17;48.95
79024;DHT22;70306;44.764;37.688;2023-09-19T03:51:58;19.23;48.53
79024;DHT22;70306;44.764;37.688;2023-09-19T03:53:00;19.22;49.02
79024;DHT22;70306;44.764;37.688;2023-09-19T03:54:01;19.24;48.05
79024;DHT22;70306;44.764;37.688;2023-09-19T03:55:05;19.28;48.56
79024;DHT22;70306;44.764;37.688;2023-09-19T03:56:07;19.31;48.15
79024;DHT22;70306;44.764;37.688;2023-09-19T03:57:09;19.37;48.81
79024;DHT22;70306;44.764;37.688;2023-09-19T03:58:11;19.37;49.03
79024;DHT22;70306;44.764;37.688;2023-09-19T03:59:14;19.44;48.44
79024;DHT22;70306;44.764;37.688;2023-09-19T04:00:16;19.46;48.86
79024;DHT22;70306;44.764;37.688;2023-09-19T04:01:22;19.47;48.78
79024;DHT22;70306;44.764;37.688;2023-09-19T04:02:24;19.50;47.48
79024;DHT22;70306;44.764;37.688;2023-09-19T04:03:26;19.54;46.71
79024;DHT22;70306;44.764;37.688;2023-09-19T04:04:35;19.64;47.18
79024;DHT22;70306;44.764;37.688;2023-09-19T04:05:37;19.65;48.04
79024;DHT22;70306;44.764;37.688;2023-09-19T04:06:39;19.65;46.79
79024;DHT22;70306;44.764;37.688;2023-09-19T04:07:40;19.71;46.96
79024;DHT22;70306;44.764;37.688;2023-09-19T04:08:42;19.74;46.52
79024;DHT22;70306;44.764;37.688;2023-09-19T04:09:46;19.79;46.63
79024;DHT22;70306;44.764;37.688;2023-09-19T04:10:50;19.81;46.84
79024;DHT22;70306;44.764;37.688;2023-09-19T04:11:54;19.81;45.86
79024;DHT22;70306;44.764;37.688;2023-09-19T04:12:56;19.83;46.64
79024;DHT22;70306;44.764;37.688;2023-09-19T04:13:57;19.90;45.95
79024;DHT22;70306;44.764;37.688;2023-09-19T04:14:59;19.92;45.91
79024;DHT22;70306;44.764;37.688;2023-09-19T04:16:01;19.93;46.29
79024;DHT22;70306;44.764;37.688;2023-09-19T04:17:02;19.96;46.90
79024;DHT22;70306;44.764;37.688;2023-09-19T04:18:05;19.96;46.28
79024;DHT22;70306;44.764;37.688;2023-09-19T04:19:07;20.02;45.47
79024;DHT22;70306;44.764;37.688;2023-09-19T04:20:09;20.03;46.05
79024;DHT22;70306;44.764;37.688;2023-09-19T04:21:13;20.06;45.44
79024;DHT22;70306;44.764;37.688;2023-09-19T04:22:15;20.06;45.90
79024;DHT22;70306;44.764;37.688;2023-09-19T04:23:16;20.08;45.27
79024;DHT22;70306;44.764;37.688;2023-09-19T04:24:18;20.10;45.15
79024;DHT22;70306;44.764;37.688;2023-09-19T04:25:20;20.14;47.15
79024;DHT22;70306;44.764;37.688;2023-09-19T04:26:22;20.13;45.46
79024;DHT22;70306;44.764;37.688;2023-09-19T04:27:23;20.13;44.78
79024;DHT22;70306;44.764;37.688;2023-09-19T04:28:25;20.17;45.39
79024;DHT22;70306;44.764;37.688;2023-09-19T04:29:28;20.20;45.37
79024;DHT22;70306;44.764;37.688;2023-09-19T04:30:30;20.24;46.25
79024;DHT22;70306;44.764;37.688;2023-09-19T04:31:32;20.26;45.05
79024;DHT22;70306;44.764;37.688;2023-09-19T04:32:33;20.27;44.56
79024;DHT22;70306;44.764;37.688;2023-09-19T04:33:37;20.33;45.16
79024;DHT22;70306;44.764;37.688;2023-09-19T04:34:39;20.33;44.60
79024;DHT22;70306;44.764;37.688;2023-09-19T04:35:41;20.34;44.63
79024;DHT22;70306;44.764;37.688;2023-09-19T04:36:43;20.36;44.34
79024;DHT22;70306;44.764;37.688;2023-09-19T04:37:45;20.37;44.26
79024;DHT22;70306;44.764;37.688;2023-09-19T04:38:46;20.40;43.56
79024;DHT22;70306;44.764;37.688;2023-09-19T04:39:48;20.41;43.52
79024;DHT22;70306;44.764;37.688;2023-09-19T04:40:57;20.40;43.53
79024;DHT22;70306;44.764;37.688;2023-09-19T04:41:59;20.47;43.90
79024;DHT22;70306;44.764;37.688;2023-09-19T04:43:01;20.48;43.45
79024;DHT22;70306;44.764;37.688;2023-09-19T04:44:04;20.50;43.18
79024;DHT22;70306;44.764;37.688;2023-09-19T04:45:07;20.55;43.41
79024;DHT22;70306;44.764;37.688;2023-09-19T04:46:09;20.54;43.29
79024;DHT22;70306;44.764;37.688;2023-09-19T04:47:11;20.59;43.97
79024;DHT22;70306;44.764;37.688;2023-09-19T04:48:13;20.59;42.51
79024;DHT22;70306;44.764;37.688;2023-09-19T04:49:17;20.61;42.41
79024;DHT22;70306;44.764;37.688;2023-09-19T04:50:20;20.63;42.24
79024;DHT22;70306;44.764;37.688;2023-09-19T04:51:22;20.59;42.07
79024;DHT22;70306;44.764;37.688;2023-09-19T04:52:24;20.61;42.52
79024;DHT22;70306;44.764;37.688;2023-09-19T04:53:26;20.64;42.53
79024;DHT22;70306;44.764;37.688;2023-09-19T04:54:29;20.69;42.08
79024;DHT22;70306;44.764;37.688;2023-09-19T04:55:30;20.74;41.09
79024;DHT22;70306;44.764;37.688;2023-09-19T04:56:34;20.74;41.38
79024;DHT22;70306;44.764;37.688;2023-09-19T04:57:35;20.78;40.65
79024;DHT22;70306;44.764;37.688;2023-09-19T04:58:38;20.81;41.11
79024;DHT22;70306;44.764;37.688;2023-09-19T04:59:39;20.86;40.20
79024;DHT22;70306;44.764;37.688;2023-09-19T05:00:42;20.92;40.99
79024;DHT22;70306;44.764;37.688;2023-09-19T05:01:44;20.91;41.79
79024;DHT22;70306;44.764;37.688;2023-09-19T05:02:52;20.95;41.67
79024;DHT22;70306;44.764;37.688;2023-09-19T05:03:54;20.96;41.74
79024;DHT22;70306;44.764;37.688;2023-09-19T05:04:55;20.98;41.16
79024;DHT22;70306;44.764;37.688;2023-09-19T05:06:00;20.99;42.80
79024;DHT22;70306;44.764;37.688;2023-09-19T05:07:02;20.99;42.60
79024;DHT22;70306;44.764;37.688;2023-09-19T05:08:04;21.04;42.03
79024;DHT22;70306;44.764;37.688;2023-09-19T05:09:06;21.09;41.97
79024;DHT22;70306;44.764;37.688;2023-09-19T05:10:09;21.11;41.93
79024;DHT22;70306;44.764;37.688;2023-09-19T05:11:14;21.14;42.09
79024;DHT22;70306;44.764;37.688;2023-09-19T05:12:16;21.17;42.25
79024;DHT22;70306;44.764;37.688;2023-09-19T05:13:19;21.17;42.05
79024;DHT22;70306;44.764;37.688;2023-09-19T05:14:21;21.17;41.37
79024;DHT22;70306;44.764;37.688;2023-09-19T05:15:23;21.16;41.69
79024;DHT22;70306;44.764;37.688;2023-09-19T05:16:25;21.14;42.35
79024;DHT22;70306;44.764;37.688;2023-09-19T05:17:27;21.16;42.42
79024;DHT22;70306;44.764;37.688;2023-09-19T05:18:29;21.20;42.38
79024;DHT22;70306;44.764;37.688;2023-09-19T05:19:30;21.22;41.14
79024;DHT22;70306;44.764;37.688;2023-09-19T05:20:32;21.22;41.51
79024;DHT22;70306;44.764;37.688;2023-09-19T05:21:36;21.20;41.79
79024;DHT22;70306;44.764;37.688;2023-09-19T05:22:38;21.20;42.08
79024;DHT22;70306;44.764;37.688;2023-09-19T05:23:42;21.20;42.06
79024;DHT22;70306;44.764;37.688;2023-09-19T05:24:44;21.26;41.55
79024;DHT22;70306;44.764;37.688;2023-09-19T05:25:52;21.30;41.30
79024;DHT22;70306;44.764;37.688;2023-09-19T05:26:54;21.28;40.93
79024;DHT22;70306;44.764;37.688;2023-09-19T05:27:57;21.28;41.02
79024;DHT22;70306;44.764;37.688;2023-09-19T05:29:00;21.31;41.50
79024;DHT22;70306;44.764;37.688;2023-09-19T05:30:03;21.34;41.37
79024;DHT22;70306;44.764;37.688;2023-09-19T05:31:06;21.37;41.59
79024;DHT22;70306;44.764;37.688;2023-09-19T05:32:07;21.37;41.11
79024;DHT22;70306;44.764;37.688;2023-09-19T05:33:09;21.43;41.10
79024;DHT22;70306;44.764;37.688;2023-09-19T05:34:11;21.47;40.92
79024;DHT22;70306;44.764;37.688;2023-09-19T05:35:13;21.45;40.81
79024;DHT22;70306;44.764;37.688;2023-09-19T05:36:14;21.41;40.81
79024;DHT22;70306;44.764;37.688;2023-09-19T05:37:17;21.38;41.34
79024;DHT22;70306;44.764;37.688;2023-09-19T05:38:19;21.40;41.30
79024;DHT22;70306;44.764;37.688;2023-09-19T05:39:21;21.41;40.44
79024;DHT22;70306;44.764;37.688;2023-09-19T05:40:24;21.47;40.62
79024;DHT22;70306;44.764;37.688;2023-09-19T05:41:26;21.51;40.53
79024;DHT22;70306;44.764;37.688;2023-09-19T05:42:28;21.51;40.78
79024;DHT22;70306;44.764;37.688;2023-09-19T05:43:30;21.51;41.05
79024;DHT22;70306;44.764;37.688;2023-09-19T05:44:32;21.52;40.77
79024;DHT22;70306;44.764;37.688;2023-09-19T05:45:35;21.59;40.55
79024;DHT22;70306;44.764;37.688;2023-09-19T05:46:38;21.62;40.50
79024;DHT22;70306;44.764;37.688;2023-09-19T05:47:40;21.65;40.56
79024;DHT22;70306;44.764;37.688;2023-09-19T05:48:47;21.63;40.25
79024;DHT22;70306;44.764;37.688;2023-09-19T05:49:49;21.63;40.46
79024;DHT22;70306;44.764;37.688;2023-09-19T05:50:52;21.61;41.06
79024;DHT22;70306;44.764;37.688;2023-09-19T05:51:55;21.68;40.50
79024;DHT22;70306;44.764;37.688;2023-09-19T05:52:58;21.66;40.09
79024;DHT22;70306;44.764;37.688;2023-09-19T05:54:00;21.69;40.45
79024;DHT22;70306;44.764;37.688;2023-09-19T05:55:02;21.72;40.44
79024;DHT22;70306;44.764;37.688;2023-09-19T05:56:06;21.74;40.08
79024;DHT22;70306;44.764;37.688;2023-09-19T05:57:08;21.71;39.95
79024;DHT22;70306;44.764;37.688;2023-09-19T05:58:12;21.74;40.24
79024;DHT22;70306;44.764;37.688;2023-09-19T05:59:19;21.72;41.43
79024;DHT22;70306;44.764;37.688;2023-09-19T06:00:22;21.79;40.68
79024;DHT22;70306;44.764;37.688;2023-09-19T06:01:25;21.81;40.78
79024;DHT22;70306;44.764;37.688;2023-09-19T06:02:27;21.86;40.36
79024;DHT22;70306;44.764;37.688;2023-09-19T06:03:31;21.88;39.87
79024;DHT22;70306;44.764;37.688;2023-09-19T06:04:33;21.89;40.18
79024;DHT22;70306;44.764;37.688;2023-09-19T06:05:35;21.90;39.84
79024;DHT22;70306;44.764;37.688;2023-09-19T06:06:38;21.93;40.25
79024;DHT22;70306;44.764;37.688;2023-09-19T06:07:41;21.95;39.72
79024;DHT22;70306;44.764;37.688;2023-09-19T06:08:43;21.95;39.24
79024;DHT22;70306;44.764;37.688;2023-09-19T06:09:46;21.96;39.53
79024;DHT22;70306;44.764;37.688;2023-09-19T06:10:48;21.95;39.12
79024;DHT22;70306;44.764;37.688;2023-09-19T06:11:50;21.97;39.85
79024;DHT22;70306;44.764;37.688;2023-09-19T06:12:52;21.99;39.68
79024;DHT22;70306;44.764;37.688;2023-09-19T06:13:54;22.06;39.07
79024;DHT22;70306;44.764;37.688;2023-09-19T06:14:57;22.05;39.79
79024;DHT22;70306;44.764;37.688;2023-09-19T06:16:00;22.03;39.02
79024;DHT22;70306;44.764;37.688;2023-09-19T06:17:06;21.97;39.07
79024;DHT22;70306;44.764;37.688;2023-09-19T06:18:11;21.97;38.97
79024;DHT22;70306;44.764;37.688;2023-09-19T06:19:16;22.00;38.56
79024;DHT22;70306;44.764;37.688;2023-09-19T06:20:18;22.02;38.27
79024;DHT22;70306;44.764;37.688;2023-09-19T06:21:22;21.97;38.57
79024;DHT22;70306;44.764;37.688;2023-09-19T06:22:24;21.93;38.72
79024;DHT22;70306;44.764;37.688;2023-09-19T06:23:26;21.97;39.04
79024;DHT22;70306;44.764;37.688;2023-09-19T06:24:30;22.02;38.51
79024;DHT22;70306;44.764;37.688;2023-09-19T06:25:32;22.05;37.02
79024;DHT22;70306;44.764;37.688;2023-09-19T06:26:34;22.05;38.20
79024;DHT22;70306;44.764;37.688;2023-09-19T06:27:36;22.09;38.38
79024;DHT22;70306;44.764;37.688;2023-09-19T06:28:38;22.17;38.26
79024;DHT22;70306;44.764;37.688;2023-09-19T06:29:40;22.20;37.40
79024;DHT22;70306;44.764;37.688;2023-09-19T06:30:43;22.18;37.40
79024;DHT22;70306;44.764;37.688;2023-09-19T06:31:45;22.23;37.23
79024;DHT22;70306;44.764;37.688;2023-09-19T06:32:57;22.21;37.59
79024;DHT22;70306;44.764;37.688;2023-09-19T06:33:59;22.23;37.54
79024;DHT22;70306;44.764;37.688;2023-09-19T06:35:01;22.20;37.28
79024;DHT22;70306;44.764;37.688;2023-09-19T06:36:09;22.18;36.77
79024;DHT22;70306;44.764;37.688;2023-09-19T06:37:11;22.20;36.58
79024;DHT22;70306;44.764;37.688;2023-09-19T06:38:13;22.24;36.81
79024;DHT22;70306;44.764;37.688;2023-09-19T06:39:17;22.27;36.65
79024;DHT22;70306;44.764;37.688;2023-09-19T06:40:18;22.27;37.37
79024;DHT22;70306;44.764;37.688;2023-09-19T06:41:21;22.30;37.75
79024;DHT22;70306;44.764;37.688;2023-09-19T06:42:26;22.33;36.77
79024;DHT22;70306;44.764;37.688;2023-09-19T06:43:34;22.37;36.95
79024;DHT22;70306;44.764;37.688;2023-09-19T06:44:36;22.37;37.16
79024;DHT22;70306;44.764;37.688;2023-09-19T06:45:38;22.37;37.40
79024;DHT22;70306;44.764;37.688;2023-09-19T06:46:40;22.36;37.69
79024;DHT22;70306;44.764;37.688;2023-09-19T06:47:46;22.39;36.84
79024;DHT22;70306;44.764;37.688;2023-09-19T06:48:52;22.33;36.94
79024;DHT22;70306;44.764;37.688;2023-09-19T06:49:54;22.33;37.51
79024;DHT22;70306;44.764;37.688;2023-09-19T06:50:56;22.34;37.35
79024;DHT22;70306;44.764;37.688;2023-09-19T06:52:00;22.43;37.21